createdAt,value
2023-04-29T00:02:17.483Z,14.73
2023-04-29T00:07:22.395Z,16.07
2023-04-29T00:12:25.554Z,17.97
2023-04-29T00:17:28.803Z,20.50
2023-04-29T00:22:33.320Z,21.07
2023-04-29T00:27:38.510Z,20.10
2023-04-29T00:32:41.742Z,21.67
2023-04-29T00:37:46.121Z,20.47
2023-04-29T00:42:49.392Z,21.37
2023-04-29T00:47:52.684Z,20.67
2023-04-29T00:52:57.173Z,20.87
2023-04-29T00:58:00.825Z,20.47
2023-04-29T01:03:04.512Z,19.77
2023-04-29T01:08:22.653Z,20.17
2023-04-29T01:13:32.085Z,21.20
2023-04-29T01:18:43.188Z,20.33
2023-04-29T01:23:53.759Z,21.07
2023-04-29T01:29:05.477Z,21.47
2023-04-29T01:34:14.438Z,21.20
2023-04-29T01:39:26.046Z,21.67
2023-04-29T01:44:42.510Z,22.73
2023-04-29T01:49:47.471Z,23.13
2023-04-29T01:54:52.090Z,22.27
2023-04-29T01:59:55.846Z,21.37
2023-04-29T02:05:18.649Z,21.43
2023-04-29T02:10:31.031Z,21.23
2023-04-29T02:15:50.993Z,20.00
2023-04-29T02:21:01.636Z,20.57
2023-04-29T02:26:07.085Z,20.80
2023-04-29T02:31:10.117Z,21.57
2023-04-29T02:36:13.504Z,21.00
2023-04-29T02:41:19.568Z,19.07
2023-04-29T02:46:24.470Z,19.53
2023-04-29T02:51:29.085Z,19.20
2023-04-29T02:56:33.641Z,19.40
2023-04-29T03:01:38.783Z,19.07
2023-04-29T03:06:41.890Z,19.67
2023-04-29T03:11:48.548Z,18.53
2023-04-29T03:16:52.272Z,18.17
2023-04-29T03:21:55.277Z,16.90
2023-04-29T03:27:01.253Z,15.90
2023-04-29T03:32:04.626Z,15.10
2023-04-29T03:37:09.302Z,14.57
2023-04-29T03:42:16.887Z,13.93
2023-04-29T03:47:20.752Z,13.73
2023-04-29T03:52:24.758Z,13.97
2023-04-29T03:57:34.845Z,13.83
2023-04-29T04:02:38.085Z,13.13
2023-04-29T04:07:41.143Z,13.60
2023-04-29T04:13:05.754Z,13.00
2023-04-29T04:18:09.332Z,12.43
2023-04-29T04:23:12.435Z,13.40
2023-04-29T04:28:16.965Z,13.37
2023-04-29T04:33:34.305Z,12.27
2023-04-29T04:38:37.416Z,12.30
2023-04-29T04:43:46.316Z,13.03
2023-04-29T04:48:54.576Z,13.27
2023-04-29T04:53:58.225Z,12.87
2023-04-29T04:59:06.428Z,13.53
2023-04-29T05:04:12.199Z,13.07
2023-04-29T05:09:15.284Z,13.47
2023-04-29T05:14:20.078Z,13.20
2023-04-29T05:19:23.040Z,14.63
2023-04-29T05:24:26.215Z,14.27
2023-04-29T05:29:30.853Z,14.67
2023-04-29T05:34:36.608Z,14.17
2023-04-29T05:39:39.750Z,14.60
2023-04-29T05:44:50.110Z,15.70
2023-04-29T05:49:53.450Z,16.50
2023-04-29T05:54:56.864Z,16.30
2023-04-29T06:00:01.763Z,15.80
2023-04-29T06:05:05.676Z,15.97
2023-04-29T06:10:17.438Z,15.17
2023-04-29T06:15:23.359Z,15.03
2023-04-29T06:20:27.274Z,14.43
2023-04-29T06:25:30.228Z,14.80
2023-04-29T06:30:34.613Z,13.40
2023-04-29T06:35:41.360Z,15.03
2023-04-29T06:41:13.820Z,14.47
2023-04-29T06:46:39.300Z,13.80
2023-04-29T06:51:53.141Z,14.57
2023-04-29T06:56:56.372Z,14.20
2023-04-29T07:02:00.711Z,14.43
2023-04-29T07:07:03.837Z,13.27
2023-04-29T07:12:07.149Z,14.17
2023-04-29T07:17:14.057Z,13.03
2023-04-29T07:22:17.949Z,11.80
2023-04-29T07:27:21.128Z,11.27
2023-04-29T07:32:26.249Z,11.43
2023-04-29T07:37:29.342Z,10.37
2023-04-29T07:42:32.624Z,9.60
2023-04-29T07:47:37.340Z,9.43
2023-04-29T07:52:40.433Z,10.27
2023-04-29T07:57:43.472Z,9.53
2023-04-29T08:02:48.117Z,8.47
2023-04-29T08:07:53.041Z,8.23
2023-04-29T08:12:59.376Z,8.63
2023-04-29T08:18:03.976Z,9.13
2023-04-29T08:23:08.064Z,9.17
2023-04-29T08:28:11.233Z,10.33
2023-04-29T08:33:15.858Z,8.87
2023-04-29T08:38:21.514Z,8.70
2023-04-29T08:43:25.105Z,7.80
2023-04-29T08:48:31.615Z,8.17
2023-04-29T08:53:34.993Z,7.37
2023-04-29T08:58:42.417Z,7.37
2023-04-29T09:03:56.083Z,6.80
2023-04-29T09:09:01.011Z,6.43
2023-04-29T09:14:04.546Z,6.10
2023-04-29T09:19:09.069Z,5.70
2023-04-29T09:24:12.798Z,7.93
2023-04-29T09:29:16.359Z,6.07
2023-04-29T09:34:32.695Z,5.73
2023-04-29T09:39:41.009Z,5.73
2023-04-29T09:44:45.315Z,5.43
2023-04-29T09:49:50.087Z,6.13
2023-04-29T09:54:53.439Z,6.17
2023-04-29T09:59:56.765Z,6.77
2023-04-29T10:05:01.547Z,5.37
2023-04-29T10:10:08.520Z,5.20
2023-04-29T10:15:22.018Z,5.40
2023-04-29T10:20:27.264Z,6.07
2023-04-29T10:25:30.830Z,5.25
2023-04-29T10:30:34.941Z,5.45
2023-04-29T10:35:39.625Z,5.40
2023-04-29T10:40:47.270Z,5.18
2023-04-29T10:45:50.278Z,4.55
2023-04-29T10:51:06.955Z,4.18
2023-04-29T10:56:11.863Z,4.00
2023-04-29T11:01:16.265Z,4.53
2023-04-29T11:06:20.896Z,4.15
2023-04-29T11:11:28.195Z,3.80
2023-04-29T11:16:31.561Z,3.50
2023-04-29T11:21:37.345Z,4.40
2023-04-29T11:26:40.380Z,3.50
2023-04-29T11:31:43.452Z,3.78
2023-04-29T11:36:48.803Z,4.50
2023-04-29T11:41:52.854Z,4.10
2023-04-29T11:47:03.206Z,4.40
2023-04-29T11:52:09.068Z,3.70
2023-04-29T11:57:12.375Z,3.58
2023-04-29T12:02:15.678Z,3.90
2023-04-29T12:07:20.493Z,3.28
2023-04-29T12:12:23.753Z,4.18
2023-04-29T12:17:26.828Z,4.00
2023-04-29T12:22:34.576Z,3.05
2023-04-29T12:27:41.508Z,3.83
2023-04-29T12:32:46.116Z,4.15
2023-04-29T12:37:51.848Z,3.83
2023-04-29T12:42:55.394Z,3.10
2023-04-29T12:47:59.449Z,3.70
2023-04-29T12:53:05.101Z,3.85
2023-04-29T12:58:09.466Z,3.92
2023-04-29T13:03:13.084Z,3.85
2023-04-29T13:08:18.315Z,3.35
2023-04-29T13:13:21.741Z,3.33
2023-04-29T13:18:24.748Z,3.83
2023-04-29T13:23:29.115Z,3.30
2023-04-29T13:28:32.527Z,3.70
2023-04-29T13:33:38.243Z,3.53
2023-04-29T13:38:45.787Z,3.97
2023-04-29T13:43:51.064Z,4.18
2023-04-29T13:49:21.156Z,4.05
2023-04-29T14:04:33.494Z,3.78
2023-04-29T14:09:38.340Z,3.90
2023-04-29T14:14:41.433Z,4.22
2023-04-29T14:19:44.687Z,3.40
2023-04-29T14:24:49.425Z,3.53
2023-04-29T14:29:52.396Z,3.70
2023-04-29T14:34:58.587Z,3.47
2023-04-29T14:40:03.922Z,3.40
2023-04-29T14:45:08.965Z,3.95
2023-04-29T14:50:12.030Z,3.30
2023-04-29T14:55:16.891Z,3.30
2023-04-29T15:00:19.943Z,3.08
2023-04-29T15:05:23.022Z,3.40
2023-04-29T15:10:27.601Z,3.25
2023-04-29T15:15:31.284Z,3.28
2023-04-29T15:20:34.250Z,2.50
2023-04-29T15:25:38.732Z,3.15
2023-04-29T15:30:41.737Z,2.80
2023-04-29T15:35:44.741Z,2.80
2023-04-29T15:40:49.108Z,2.17
2023-04-29T15:45:52.178Z,2.75
2023-04-29T15:50:55.315Z,2.38
2023-04-29T15:56:00.142Z,2.00
2023-04-29T16:01:04.727Z,2.00
2023-04-29T16:06:08.304Z,1.70
2023-04-29T16:11:12.704Z,2.05
2023-04-29T16:16:15.868Z,1.80
2023-04-29T16:21:18.999Z,1.80
2023-04-29T16:26:23.808Z,2.60
2023-04-29T16:31:28.393Z,1.90
2023-04-29T16:36:32.928Z,2.60
2023-04-29T16:41:37.430Z,2.85
2023-04-29T16:46:40.580Z,3.47
2023-04-29T16:51:43.739Z,3.20
2023-04-29T16:56:50.205Z,3.03
2023-04-29T17:01:55.267Z,3.00
2023-04-29T17:06:58.451Z,2.50
2023-04-29T17:12:03.804Z,1.90
2023-04-29T17:17:06.889Z,1.73
2023-04-29T17:22:10.053Z,1.60
2023-04-29T17:27:14.766Z,1.13
2023-04-29T17:32:17.782Z,1.27
2023-04-29T17:37:25.031Z,1.77
2023-04-29T17:42:29.533Z,1.52
2023-04-29T17:47:32.776Z,1.45
2023-04-29T17:52:36.372Z,0.90
2023-04-29T17:57:42.236Z,1.13
2023-04-29T18:02:45.308Z,1.20
2023-04-29T18:07:48.633Z,1.00
2023-04-29T18:12:53.533Z,1.10
2023-04-29T18:17:56.552Z,1.30
2023-04-29T18:22:59.505Z,1.60
2023-04-29T18:28:23.021Z,1.30
2023-04-29T18:33:27.009Z,1.90
2023-04-29T18:38:30.161Z,2.00
2023-04-29T18:43:34.609Z,2.03
2023-04-29T18:48:39.021Z,2.03
2023-04-29T18:53:42.111Z,2.20
2023-04-29T18:58:46.645Z,2.00
2023-04-29T19:03:49.733Z,2.27
2023-04-29T19:08:52.984Z,2.13
2023-04-29T19:13:57.378Z,2.57
2023-04-29T19:19:00.441Z,2.60
2023-04-29T19:24:03.325Z,2.70
2023-04-29T19:29:07.742Z,2.63
2023-04-29T19:34:10.772Z,2.80
2023-04-29T19:39:14.797Z,3.13
2023-04-29T19:44:19.264Z,2.40
2023-04-29T19:49:22.277Z,2.97
2023-04-29T19:54:25.208Z,2.73
2023-04-29T19:59:29.644Z,3.40
2023-04-29T20:04:32.630Z,2.40
2023-04-29T20:09:36.090Z,2.80
2023-04-29T20:14:40.484Z,2.53
2023-04-29T20:19:43.426Z,2.40
2023-04-29T20:24:46.694Z,2.40
2023-04-29T20:29:53.671Z,2.40
2023-04-29T20:34:56.922Z,2.40
2023-04-29T20:40:00.229Z,2.60
2023-04-29T20:45:05.736Z,2.93
2023-04-29T20:50:09.893Z,2.73
2023-04-29T20:55:13.013Z,2.87
2023-04-29T21:00:17.876Z,3.60
2023-04-29T21:05:21.021Z,2.97
2023-04-29T21:10:24.565Z,3.60
2023-04-29T21:15:30.485Z,3.90
2023-04-29T21:20:33.613Z,3.70
2023-04-29T21:25:36.696Z,3.77
2023-04-29T21:30:41.317Z,4.23
2023-04-29T21:35:48.339Z,4.07
2023-04-29T21:40:54.400Z,4.17
2023-04-29T21:45:58.988Z,4.50
2023-04-29T21:51:05.097Z,4.90
2023-04-29T21:56:08.872Z,4.00
2023-04-29T22:01:26.708Z,5.73
2023-04-29T22:06:30.126Z,4.87
2023-04-29T22:11:33.294Z,5.63
2023-04-29T22:16:38.271Z,5.13
2023-04-29T22:21:43.029Z,5.13
2023-04-29T22:26:46.515Z,5.63
2023-04-29T22:31:53.521Z,5.53
2023-04-29T22:36:57.757Z,5.77
2023-04-29T22:42:01.130Z,5.43
2023-04-29T22:47:05.685Z,6.30
2023-04-29T22:52:08.720Z,6.40
2023-04-29T22:57:12.372Z,6.37
2023-04-29T23:02:16.958Z,7.13
2023-04-29T23:07:20.019Z,6.20
2023-04-29T23:12:23.086Z,6.83
2023-04-29T23:17:27.713Z,6.97
2023-04-29T23:22:30.766Z,6.33
2023-04-29T23:27:33.745Z,6.60
2023-04-29T23:32:38.146Z,7.47
2023-04-29T23:37:41.191Z,7.30
2023-04-29T23:42:44.124Z,7.93
2023-04-29T23:47:49.649Z,7.50
2023-04-29T23:52:52.690Z,7.77
2023-04-29T23:57:57.115Z,7.07
